Time;durP1;ratioP1;P1;durP2;ratioP2;P2;SDS_P1;SDS_P2;PMS_P1;PMS_P2;Temp;Humidity;BMP_temperature;BMP_pressure;BME280_temperature;BME280_humidity;BME280_pressure;Samples;Min_cycle;Max_cycle;Signal;HPM_P1;HPM_P2
2021/07/13 00:00:31;;;;;;;17.05;15.63;;;;;;;16.73;90.59;100783.19;1040373;28;20041;-81
2021/07/13 00:01:03;;;;;;;17.55;15.95;;;;;;;16.71;91.08;100776.28;1040080;28;20081;-81
2021/07/13 00:01:36;;;;;;;16.33;14.73;;;;;;;16.74;90.02;100792.78;1040072;28;20089;-81
2021/07/13 00:02:08;;;;;;;15.82;14.52;;;;;;;16.79;90.52;100790.09;1040052;28;20061;-81
2021/07/13 00:02:40;;;;;;;17.52;15.98;;;;;;;16.78;90.40;100784.00;1043343;28;20060;-81
2021/07/13 00:03:12;;;;;;;16.42;14.90;;;;;;;16.80;90.05;100791.84;1040108;28;20053;-81
2021/07/13 00:03:43;;;;;;;14.20;13.00;;;;;;;16.81;89.75;100794.44;1036490;28;20061;-81
2021/07/13 00:04:15;;;;;;;16.35;14.90;;;;;;;16.83;89.82;100797.03;1039942;28;20080;-81
2021/07/13 00:04:51;;;;;;;17.60;16.02;;;;;;;16.82;90.28;100792.69;1044147;28;20049;-81
2021/07/13 00:05:24;;;;;;;17.50;16.00;;;;;;;16.82;90.23;100795.31;1044097;28;20052;-81
2021/07/13 00:05:56;;;;;;;17.83;16.20;;;;;;;16.82;90.11;100796.16;1048264;28;20052;-81
2021/07/13 00:06:28;;;;;;;17.73;16.27;;;;;;;16.85;89.67;100792.66;1048247;28;20241;-81
2021/07/13 00:07:00;;;;;;;18.75;17.15;;;;;;;16.85;90.21;100793.53;1048167;28;20135;-80
2021/07/13 00:07:31;;;;;;;19.42;17.60;;;;;;;16.85;90.35;100796.13;1045132;28;20045;-81
2021/07/13 00:08:06;;;;;;;19.67;17.73;;;;;;;16.88;89.78;100796.09;1044128;28;20048;-81
2021/07/13 00:08:38;;;;;;;18.98;17.25;;;;;;;16.85;90.47;100796.13;1045151;28;20045;-81
2021/07/13 00:09:10;;;;;;;19.55;17.85;;;;;;;16.81;91.18;100802.28;1044150;28;20044;-81
2021/07/13 00:09:42;;;;;;;19.60;17.83;;;;;;;16.82;91.43;100800.53;1044134;28;20076;-82
2021/07/13 00:10:18;;;;;;;20.23;18.52;;;;;;;16.82;90.91;100800.53;1040171;28;20045;-81
2021/07/13 00:10:50;;;;;;;19.15;17.45;;;;;;;16.84;90.04;100798.75;1041120;28;20050;-81
2021/07/13 00:11:22;;;;;;;22.10;19.90;;;;;;;16.88;90.60;100800.44;1044032;28;20469;-81
2021/07/13 00:11:53;;;;;;;20.40;18.60;;;;;;;16.89;90.39;100804.78;1045175;28;20060;-81
2021/07/13 00:12:26;;;;;;;18.08;16.58;;;;;;;16.86;90.62;100800.47;1043953;28;20138;-81
2021/07/13 00:12:59;;;;;;;20.10;18.05;;;;;;;16.88;90.53;100803.06;1044215;28;20091;-81
2021/07/13 00:13:30;;;;;;;20.23;18.45;;;;;;;16.87;90.42;100798.72;1044080;28;20490;-81
2021/07/13 00:14:04;;;;;;;19.73;17.95;;;;;;;16.88;89.97;100798.69;1048189;28;20049;-81
2021/07/13 00:14:36;;;;;;;19.30;17.67;;;;;;;16.90;89.74;100802.19;1048530;28;20049;-81
2021/07/13 00:15:11;;;;;;;21.85;19.85;;;;;;;16.93;90.41;100799.50;1048090;28;20444;-81
2021/07/13 00:15:44;;;;;;;24.50;22.15;;;;;;;16.93;90.50;100796.03;1048109;28;20045;-81
2021/07/13 00:16:16;;;;;;;22.88;20.77;;;;;;;16.94;89.83;100803.84;1044100;28;20049;-81
2021/07/13 00:16:48;;;;;;;25.30;22.95;;;;;;;16.98;89.96;100798.59;1040036;28;20049;-80
2021/07/13 00:17:22;;;;;;;26.48;23.77;;;;;;;16.92;91.02;100792.56;1040526;28;20428;-81
2021/07/13 00:17:56;;;;;;;24.35;22.20;;;;;;;16.92;90.62;100802.16;1041054;28;20049;-81
2021/07/13 00:18:27;;;;;;;25.45;23.15;;;;;;;16.95;90.33;100797.75;1044719;28;20060;-81
2021/07/13 00:19:00;;;;;;;27.33;24.80;;;;;;;16.95;90.42;100800.34;1044053;28;20041;-81
2021/07/13 00:19:33;;;;;;;26.38;23.98;;;;;;;16.99;90.46;100795.09;1048175;28;20409;-81
2021/07/13 00:20:06;;;;;;;26.15;23.85;;;;;;;16.98;90.83;100796.00;1051617;28;20051;-81
2021/07/13 00:20:38;;;;;;;26.13;23.42;;;;;;;16.91;90.55;100796.06;1048232;28;20400;-81
2021/07/13 00:21:09;;;;;;;24.33;22.08;;;;;;;16.92;91.10;100803.03;1048173;28;20416;-81
2021/07/13 00:21:41;;;;;;;23.42;21.38;;;;;;;16.92;91.12;100804.75;1048040;28;20044;-81
2021/07/13 00:22:12;;;;;;;23.38;21.27;;;;;;;16.91;91.24;100803.91;1044198;28;20049;-81
2021/07/13 00:22:44;;;;;;;23.95;21.60;;;;;;;16.90;90.73;100803.91;1044029;28;20044;-81
2021/07/13 00:23:16;;;;;;;23.67;21.58;;;;;;;16.90;90.91;100807.41;1044579;28;20045;-81
2021/07/13 00:23:47;;;;;;;24.15;21.83;;;;;;;16.89;91.12;100804.78;1048224;28;20068;-81
2021/07/13 00:24:19;;;;;;;24.40;21.95;;;;;;;16.90;90.88;100804.78;1044558;28;20056;-81
2021/07/13 00:24:50;;;;;;;25.30;22.50;;;;;;;16.89;90.80;100810.88;1044130;28;20057;-80
2021/07/13 00:25:23;;;;;;;23.45;21.30;;;;;;;16.91;90.86;100803.91;1044262;28;20053;-81
2021/07/13 00:25:55;;;;;;;22.67;20.67;;;;;;;16.93;90.46;100806.50;1044774;28;20055;-81
2021/07/13 00:26:27;;;;;;;24.50;22.15;;;;;;;16.94;90.71;100801.25;1044884;28;20056;-81
2021/07/13 00:26:58;;;;;;;23.27;20.73;;;;;;;16.95;90.21;100815.16;1044136;28;20163;-81
2021/07/13 00:27:29;;;;;;;22.38;20.27;;;;;;;16.96;90.00;100809.09;1044044;28;20049;-80
2021/07/13 00:28:02;;;;;;;25.58;23.15;;;;;;;16.98;89.88;100815.16;1044568;28;20060;-81
2021/07/13 00:28:33;;;;;;;22.75;20.70;;;;;;;16.95;90.25;100812.56;1044522;28;20044;-81
2021/07/13 00:29:06;;;;;;;23.42;20.98;;;;;;;16.97;89.90;100812.56;1048309;28;20052;-81
2021/07/13 00:29:37;;;;;;;25.63;23.33;;;;;;;16.97;90.08;100816.03;1048320;28;20132;-81
2021/07/13 00:30:11;;;;;;;26.17;23.77;;;;;;;16.97;90.61;100813.41;1048219;28;20049;-81
2021/07/13 00:30:43;;;;;;;24.70;22.50;;;;;;;16.95;91.14;100812.56;1048324;28;20074;-81
2021/07/13 00:31:15;;;;;;;25.63;23.05;;;;;;;16.95;90.34;100813.41;1044160;28;20429;-80
2021/07/13 00:31:46;;;;;;;24.38;22.13;;;;;;;17.00;90.77;100813.38;1044127;28;20048;-81
2021/07/13 00:32:19;;;;;;;22.67;20.70;;;;;;;17.03;90.39;100810.72;1044133;28;20059;-81
2021/07/13 00:32:50;;;;;;;24.75;22.55;;;;;;;17.08;90.45;100813.28;1044155;28;20059;-81
2021/07/13 00:33:22;;;;;;;23.05;21.05;;;;;;;17.04;89.91;100811.59;1044501;28;20417;-81
2021/07/13 00:33:54;;;;;;;22.90;20.85;;;;;;;17.04;90.08;100811.59;1048204;28;20067;-81
2021/07/13 00:34:25;;;;;;;24.42;22.23;;;;;;;17.06;89.80;100809.81;1044135;28;20060;-81
2021/07/13 00:34:56;;;;;;;25.67;23.38;;;;;;;17.03;90.37;100812.47;1037129;28;20394;-81
2021/07/13 00:35:28;;;;;;;26.98;24.67;;;;;;;17.00;90.32;100812.50;1036386;28;20500;-81
2021/07/13 00:36:00;;;;;;;24.73;22.42;;;;;;;17.00;90.02;100807.28;1040370;28;20084;-81
2021/07/13 00:36:31;;;;;;;25.15;22.63;;;;;;;16.98;90.34;100803.81;1046556;28;20052;-81
2021/07/13 00:37:03;;;;;;;23.23;21.05;;;;;;;16.99;90.27;100805.56;1044208;28;20049;-81
2021/07/13 00:37:35;;;;;;;23.20;21.10;;;;;;;16.99;90.23;100802.94;1043987;28;20060;-82
2021/07/13 00:38:07;;;;;;;20.95;18.85;;;;;;;16.99;89.83;100809.03;1044492;28;20063;-81
2021/07/13 00:38:38;;;;;;;23.80;21.67;;;;;;;17.01;90.37;100809.00;1048244;28;20059;-81
2021/07/13 00:39:10;;;;;;;24.15;21.92;;;;;;;17.00;90.27;100805.53;1048045;28;20052;-82
2021/07/13 00:39:41;;;;;;;25.45;23.00;;;;;;;16.98;90.27;100804.69;1043977;28;20059;-81
2021/07/13 00:40:15;;;;;;;25.42;23.00;;;;;;;16.98;90.26;100811.66;1039924;28;20057;-81
2021/07/13 00:40:46;;;;;;;23.33;21.27;;;;;;;16.98;90.37;100807.31;1040624;28;20041;-81
2021/07/13 00:41:18;;;;;;;26.40;23.77;;;;;;;16.98;90.61;100804.69;1044717;28;20049;-81
2021/07/13 00:41:50;;;;;;;25.13;22.73;;;;;;;16.98;90.91;100804.69;1048215;28;20048;-81
2021/07/13 00:42:22;;;;;;;25.80;23.20;;;;;;;17.00;89.87;100802.06;1044143;28;20056;-81
2021/07/13 00:42:54;;;;;;;21.70;19.73;;;;;;;17.05;89.57;100802.84;1044730;28;20049;-81
2021/07/13 00:43:25;;;;;;;23.17;21.13;;;;;;;17.11;90.37;100806.25;1043892;28;20045;-82
2021/07/13 00:43:57;;;;;;;22.85;20.65;;;;;;;17.06;90.21;100799.34;1043986;28;20052;-81
2021/07/13 00:44:28;;;;;;;23.48;21.45;;;;;;;17.04;90.58;100799.38;1045135;28;20123;-79
2021/07/13 00:45:00;;;;;;;24.80;22.60;;;;;;;17.03;90.47;100805.50;1043978;28;20049;-82
2021/07/13 00:45:32;;;;;;;26.73;24.23;;;;;;;17.00;90.87;100804.66;1040416;28;20045;-81
2021/07/13 00:46:03;;;;;;;25.27;23.05;;;;;;;17.01;90.74;100803.78;1044086;28;20071;-81
2021/07/13 00:46:45;;;;;;;26.73;24.13;;;;;;;17.00;90.91;100805.53;1044510;28;20045;-81
2021/07/13 00:47:22;;;;;;;27.35;24.85;;;;;;;17.01;91.39;100804.63;1048096;28;20048;-79
2021/07/13 00:47:53;;;;;;;27.17;24.58;;;;;;;17.01;91.04;100807.25;1048209;28;20137;-81
2021/07/13 00:48:25;;;;;;;24.50;22.35;;;;;;;17.02;90.32;100821.19;1048254;28;20049;-82
2021/07/13 00:49:03;;;;;;;28.45;25.88;;;;;;;17.06;90.91;100815.03;1048142;28;20080;-81
2021/07/13 00:49:35;;;;;;;28.65;26.00;;;;;;;17.03;91.14;100812.47;1048284;28;20048;-81
2021/07/13 00:50:08;;;;;;;27.73;25.20;;;;;;;17.02;91.29;100811.63;1048177;28;20052;-82
2021/07/13 00:50:40;;;;;;;29.63;26.98;;;;;;;17.00;91.44;100810.75;1044170;28;20409;-79
2021/07/13 00:51:12;;;;;;;31.00;28.00;;;;;;;17.01;91.55;100812.47;1044740;28;20045;-81
2021/07/13 00:51:44;;;;;;;33.63;30.38;;;;;;;17.02;91.36;100813.34;1048178;28;20386;-81
2021/07/13 00:52:18;;;;;;;33.25;30.05;;;;;;;17.02;91.53;100805.50;1043929;28;20060;-81
2021/07/13 00:52:50;;;;;;;31.95;28.73;;;;;;;17.03;91.17;100805.50;1039923;28;20512;-81
2021/07/13 00:53:24;;;;;;;32.63;29.63;;;;;;;17.03;91.52;100817.72;1039871;28;20049;-81
2021/07/13 00:53:56;;;;;;;33.75;30.75;;;;;;;17.00;91.40;100815.97;1040903;28;20049;-81
2021/07/13 00:54:29;;;;;;;29.63;26.70;;;;;;;17.01;90.82;100814.22;1047989;28;20049;-81
2021/07/13 00:55:01;;;;;;;28.20;25.70;;;;;;;17.05;91.06;100819.41;1047925;28;20557;-81
2021/07/13 00:55:33;;;;;;;30.40;27.70;;;;;;;17.02;91.04;100815.94;1048055;28;20071;-81
2021/07/13 00:56:04;;;;;;;32.80;29.70;;;;;;;17.02;91.06;100821.19;1045226;28;20381;-81
2021/07/13 00:56:37;;;;;;;31.60;28.80;;;;;;;17.02;90.98;100818.56;1044082;28;20056;-81
2021/07/13 00:57:10;;;;;;;27.90;25.15;;;;;;;17.03;90.97;100822.94;1046025;28;20053;-81
2021/07/13 00:57:42;;;;;;;30.35;27.50;;;;;;;17.05;91.30;100822.03;1048036;28;20052;-81
2021/07/13 00:58:13;;;;;;;31.05;27.88;;;;;;;17.10;90.63;100827.19;1044005;28;20378;-81
2021/07/13 00:58:45;;;;;;;31.25;28.45;;;;;;;17.10;90.31;100828.06;1044117;28;20049;-81
2021/07/13 00:59:18;;;;;;;30.20;27.55;;;;;;;17.08;90.64;100823.75;1044411;28;20615;-82
2021/07/13 00:59:49;;;;;;;30.52;27.73;;;;;;;17.06;91.15;100825.50;1045483;28;20049;-81
2021/07/13 01:00:23;;;;;;;31.38;28.55;;;;;;;17.04;90.61;100825.53;1048778;28;20056;-81
2021/07/13 01:00:55;;;;;;;30.08;27.45;;;;;;;17.06;90.93;100822.88;1045770;28;20411;-81
2021/07/13 01:01:26;;;;;;;29.77;27.20;;;;;;;17.07;91.13;100822.84;1048798;28;20048;-81
2021/07/13 01:01:58;;;;;;;28.90;26.27;;;;;;;17.04;91.03;100820.28;1048870;28;20480;-81
2021/07/13 01:02:31;;;;;;;30.40;27.55;;;;;;;17.07;91.29;100822.00;1048820;28;20044;-81
2021/07/13 01:03:05;;;;;;;29.85;27.08;;;;;;;17.08;90.86;100824.63;1049000;28;20066;-81
2021/07/13 01:03:36;;;;;;;30.42;27.63;;;;;;;17.05;91.00;100818.53;1048898;28;20404;-81
2021/07/13 01:04:08;;;;;;;26.13;23.70;;;;;;;17.06;91.02;100822.88;1048845;28;20041;-81
2021/07/13 01:04:49;;;;;;;31.77;28.85;;;;;;;17.00;91.53;100817.72;1045377;28;20051;-81
2021/07/13 01:05:22;;;;;;;;;;;;;;;16.99;91.59;100818.63;1049473;28;20063;-81
2021/07/13 01:05:54;;;;;;;29.55;26.67;;;;;;;16.97;91.43;100818.66;1044700;28;19936;-81
2021/07/13 01:06:49;;;;;;;29.15;26.35;;;;;;;16.98;90.80;100822.13;1046460;28;20049;-81
2021/07/13 01:07:49;;;;;;;27.33;24.73;;;;;;;16.97;90.92;100823.88;1044739;28;20053;-80
2021/07/13 01:08:33;;;;;;;27.88;25.27;;;;;;;17.01;90.72;100824.69;1040830;28;20046;-80
2021/07/13 01:09:09;;;;;;;28.67;25.95;;;;;;;17.00;90.99;100826.44;1046343;28;20405;-81
2021/07/13 01:09:46;;;;;;;30.25;27.35;;;;;;;16.99;91.48;100823.84;1044596;28;20048;-79
2021/07/13 01:10:44;;;;;;;28.52;25.92;;;;;;;16.97;91.38;100821.25;1045037;28;20045;-81
2021/07/13 01:11:50;;;;;;;31.08;28.15;;;;;;;16.93;91.37;100828.25;1044704;28;20060;-81
2021/07/13 01:12:40;;;;;;;27.90;25.00;;;;;;;16.92;91.07;100820.44;1040349;28;20049;-81
2021/07/13 01:13:36;;;;;;;30.30;27.50;;;;;;;16.90;91.78;100825.69;1048287;28;20138;-81
2021/07/13 01:14:16;;;;;;;28.05;25.25;;;;;;;16.90;92.33;100825.69;1042585;28;20140;-81
2021/07/13 01:14:56;;;;;;;31.95;28.75;;;;;;;16.86;92.61;100816.16;1044670;28;20123;-81
2021/07/13 01:15:32;;;;;;;31.23;28.33;;;;;;;16.83;92.74;100818.78;1046959;28;20055;-81
2021/07/13 01:16:25;;;;;;;32.67;29.63;;;;;;;16.84;92.37;100817.03;1044317;28;20061;-81
2021/07/13 01:17:12;;;;;;;32.67;29.48;;;;;;;16.89;92.10;100818.72;1040631;28;20053;-81
2021/07/13 01:17:50;;;;;;;35.47;31.98;;;;;;;16.87;92.23;100815.28;1037902;28;20375;-81
2021/07/13 01:18:26;;;;;;;33.45;30.25;;;;;;;16.88;92.51;100816.13;1040457;28;20409;-81
2021/07/13 01:19:21;;;;;;;33.25;30.10;;;;;;;16.87;92.28;100820.50;1040545;28;20060;-81
2021/07/13 01:20:09;;;;;;;29.70;26.90;;;;;;;16.88;92.58;100808.28;1040424;28;20042;-81
2021/07/13 01:21:30;;;;;;;31.42;27.98;;;;;;;16.90;91.66;100812.63;1042197;28;20413;-81
2021/07/13 01:22:07;;;;;;;30.55;27.45;;;;;;;16.91;92.50;100806.53;1041500;28;20073;-80
2021/07/13 01:22:43;;;;;;;32.70;29.50;;;;;;;16.91;91.97;100803.91;1044190;28;20048;-81
2021/07/13 01:23:39;;;;;;;31.98;29.17;;;;;;;16.91;91.91;100803.03;1044738;28;20048;-81
2021/07/13 01:24:48;;;;;;;28.50;25.60;;;;;;;16.93;91.22;100804.75;1044722;28;20045;-81
2021/07/13 01:25:35;;;;;;;28.15;25.55;;;;;;;16.99;91.85;100795.97;1044774;28;20055;-81
2021/07/13 01:26:21;;;;;;;30.77;27.83;;;;;;;16.97;91.69;100800.34;1043896;28;20115;-81
2021/07/13 01:27:11;;;;;;;27.98;25.45;;;;;;;17.00;91.58;100789.84;1044830;28;20060;-81
2021/07/13 01:27:48;;;;;;;28.92;26.23;;;;;;;16.99;91.50;100790.72;1045259;28;20049;-81
2021/07/13 01:28:23;;;;;;;29.25;26.48;;;;;;;17.01;91.07;100785.47;1048634;28;20178;-81
2021/07/13 01:29:02;;;;;;;30.77;27.65;;;;;;;16.98;91.54;100790.75;1044639;28;20060;-81
2021/07/13 01:29:36;;;;;;;33.15;30.15;;;;;;;16.93;91.50;100788.19;1044602;28;20432;-81
2021/07/13 01:30:24;;;;;;;32.97;29.70;;;;;;;16.90;92.28;100783.88;1046932;28;20048;-81
2021/07/13 01:31:02;;;;;;;28.85;26.08;;;;;;;16.91;92.21;100780.38;1044684;28;20049;-81
2021/07/13 01:31:38;;;;;;;31.55;28.52;;;;;;;16.95;91.89;100783.81;1044714;28;20048;-81
2021/07/13 01:32:16;;;;;;;33.60;30.38;;;;;;;16.95;91.71;100781.19;1044587;28;20132;-81
2021/07/13 01:33:04;;;;;;;34.65;31.23;;;;;;;16.93;91.33;100776.00;1047407;28;20049;-80
2021/07/13 01:33:38;;;;;;;35.20;31.70;;;;;;;16.89;92.36;100778.66;1049254;28;20045;-82
2021/07/13 01:34:23;;;;;;;32.55;29.42;;;;;;;16.90;92.39;100777.75;1048744;28;20049;-81
2021/07/13 01:35:00;;;;;;;32.70;29.55;;;;;;;16.91;92.34;100784.75;1048561;28;20060;-81
2021/07/13 01:35:36;;;;;;;35.80;32.30;;;;;;;16.90;92.11;100777.75;1048755;28;20052;-81
2021/07/13 01:36:15;;;;;;;31.50;28.38;;;;;;;16.89;91.94;100779.53;1048586;28;20059;-81
2021/07/13 01:36:50;;;;;;;30.13;27.42;;;;;;;16.89;92.28;100779.53;1044715;28;20049;-81
2021/07/13 01:37:25;;;;;;;32.05;29.00;;;;;;;16.89;91.87;100779.53;1047316;28;20045;-81
2021/07/13 01:37:59;;;;;;;32.85;29.75;;;;;;;16.85;92.58;100780.47;1052920;28;20047;-81
2021/07/13 01:38:39;;;;;;;33.60;30.40;;;;;;;16.81;93.29;100780.50;1048628;28;20053;-81
2021/07/13 01:39:13;;;;;;;34.00;30.67;;;;;;;16.82;92.90;100785.72;1044549;28;20049;-81
2021/07/13 01:39:45;;;;;;;36.78;33.40;;;;;;;16.78;93.30;100778.78;1044673;28;20041;-81
2021/07/13 01:40:18;;;;;;;37.50;33.67;;;;;;;16.76;93.63;100779.69;1046705;28;20056;-81
2021/07/13 01:40:57;;;;;;;35.88;32.42;;;;;;;16.78;92.95;100784.00;1044710;28;20060;-81
2021/07/13 01:41:30;;;;;;;34.50;31.30;;;;;;;16.82;92.69;100780.47;1046183;28;20044;-81
2021/07/13 01:42:05;;;;;;;35.90;32.45;;;;;;;16.83;93.50;100786.56;1048783;28;20063;-81
2021/07/13 01:42:41;;;;;;;39.88;36.15;;;;;;;16.82;93.99;100777.00;1047097;28;20040;-81
2021/07/13 01:43:13;;;;;;;34.20;31.10;;;;;;;16.80;94.07;100777.03;1044704;28;20052;-81
2021/07/13 01:43:47;;;;;;;34.45;31.20;;;;;;;16.84;93.29;100781.31;1040339;28;20164;-81
2021/07/13 01:44:21;;;;;;;34.88;31.55;;;;;;;16.89;92.91;100773.44;1041846;28;20520;-81
2021/07/13 01:44:54;;;;;;;35.72;32.25;;;;;;;16.93;92.03;100776.00;1040378;28;20057;-81
2021/07/13 01:45:26;;;;;;;33.08;30.08;;;;;;;16.99;92.13;100779.41;1041743;28;20371;-81
2021/07/13 01:45:58;;;;;;;32.72;29.73;;;;;;;16.98;92.61;100772.47;1045001;28;20104;-81
2021/07/13 01:46:30;;;;;;;34.28;31.17;;;;;;;16.96;92.57;100772.50;1045220;28;20048;-81
2021/07/13 01:47:02;;;;;;;31.33;28.52;;;;;;;16.92;92.99;100771.66;1048781;28;20052;-81
2021/07/13 01:47:38;;;;;;;32.60;29.73;;;;;;;16.92;93.13;100771.66;1044484;28;20045;-81
2021/07/13 01:48:10;;;;;;;36.00;32.58;;;;;;;16.92;93.27;100773.41;1041535;28;20053;-81
2021/07/13 01:48:45;;;;;;;37.10;33.63;;;;;;;16.92;93.32;100768.19;1044627;28;20578;-81
2021/07/13 01:49:24;;;;;;;34.35;31.02;;;;;;;16.90;93.12;100765.59;1041831;28;20406;-81
2021/07/13 01:49:58;;;;;;;36.13;32.80;;;;;;;16.88;93.28;100763.88;1040537;28;20049;-81
2021/07/13 01:50:32;;;;;;;35.10;31.73;;;;;;;16.87;93.45;100767.38;1042567;28;20041;-81
2021/07/13 01:51:05;;;;;;;36.97;33.42;;;;;;;16.85;93.28;100767.41;1044480;28;20052;-81
2021/07/13 01:51:38;;;;;;;35.10;31.85;;;;;;;16.85;93.38;100767.41;1044588;28;20108;-81
2021/07/13 01:52:12;;;;;;;37.97;34.53;;;;;;;16.87;93.52;100764.75;1045618;28;20053;-81
2021/07/13 01:52:45;;;;;;;38.55;34.88;;;;;;;16.86;93.38;100763.03;1050796;28;20052;-81
2021/07/13 01:53:17;;;;;;;37.42;33.92;;;;;;;16.90;92.95;100776.03;1048851;28;20420;-81
2021/07/13 01:53:50;;;;;;;40.47;36.47;;;;;;;16.86;93.57;100763.88;1048660;28;20051;-81
2021/07/13 01:54:25;;;;;;;37.70;33.92;;;;;;;16.85;93.63;100767.41;1044534;28;20405;-81
2021/07/13 01:54:57;;;;;;;40.15;36.35;;;;;;;16.84;93.37;100767.38;1045840;28;20052;-81
2021/07/13 01:55:33;;;;;;;39.08;35.38;;;;;;;16.84;93.86;100770.88;1044333;28;20049;-81
2021/07/13 01:56:07;;;;;;;35.10;31.67;;;;;;;16.84;93.47;100770.88;1041845;28;20049;-81
2021/07/13 01:56:39;;;;;;;36.75;33.30;;;;;;;16.85;93.77;100764.78;1040414;28;20072;-81
2021/07/13 01:57:11;;;;;;;36.35;32.95;;;;;;;16.83;93.75;100766.53;1041983;28;20050;-81
2021/07/13 01:57:44;;;;;;;33.97;30.52;;;;;;;16.81;93.64;100768.31;1045408;28;20053;-81
2021/07/13 01:58:18;;;;;;;34.70;31.50;;;;;;;16.85;93.59;100771.75;1045144;28;20580;-80
2021/07/13 01:58:50;;;;;;;34.28;30.98;;;;;;;16.82;93.33;100769.16;1048478;28;20049;-81
2021/07/13 01:59:23;;;;;;;36.15;32.30;;;;;;;16.84;93.32;100762.16;1048671;28;20059;-81
2021/07/13 01:59:56;;;;;;;31.38;28.25;;;;;;;16.83;93.26;100765.66;1048623;28;20055;-81
2021/07/13 02:00:28;;;;;;;33.05;29.77;;;;;;;16.83;93.57;100763.06;1044397;28;20056;-81
2021/07/13 02:01:17;;;;;;;36.60;33.10;;;;;;;16.81;93.63;100759.59;1040333;28;20422;-81
2021/07/13 02:01:49;;;;;;;35.95;32.55;;;;;;;16.85;93.67;100769.16;1039344;28;20115;-81
2021/07/13 02:02:23;;;;;;;33.60;29.95;;;;;;;16.86;93.04;100768.25;1043263;28;20086;-81
2021/07/13 02:02:55;;;;;;;34.97;31.63;;;;;;;16.88;93.06;100764.72;1047318;28;20056;-81
2021/07/13 02:03:27;;;;;;;34.75;31.45;;;;;;;16.85;93.05;100764.78;1045591;28;20052;-81
2021/07/13 02:04:02;;;;;;;31.63;28.73;;;;;;;16.84;93.06;100760.41;1048711;28;20048;-81
2021/07/13 02:04:35;;;;;;;38.03;34.38;;;;;;;16.87;92.85;100767.38;1044450;28;20056;-81
2021/07/13 02:05:10;;;;;;;35.45;31.98;;;;;;;16.86;92.90;100765.66;1045698;28;20059;-80
2021/07/13 02:05:44;;;;;;;30.90;27.85;;;;;;;16.88;92.22;100764.72;1048503;28;20059;-81
2021/07/13 02:06:17;;;;;;;31.80;28.80;;;;;;;16.87;93.02;100759.53;1048493;28;20052;-81
2021/07/13 02:06:50;;;;;;;33.45;30.17;;;;;;;16.88;92.36;100759.50;1044528;28;20049;-82
2021/07/13 02:07:23;;;;;;;31.85;28.65;;;;;;;16.88;92.37;100761.25;1040263;28;20060;-81
2021/07/13 02:08:00;;;;;;;30.00;27.17;;;;;;;16.88;92.75;100759.50;1040353;28;20053;-81
2021/07/13 02:08:37;;;;;;;31.55;28.55;;;;;;;16.87;92.83;100764.75;1042033;28;20052;-79
2021/07/13 02:09:12;;;;;;;30.17;27.15;;;;;;;16.85;92.68;100762.16;1044562;28;20063;-82
2021/07/13 02:09:44;;;;;;;30.55;27.38;;;;;;;16.87;92.52;100763.00;1044190;28;20049;-81
2021/07/13 02:10:19;;;;;;;31.42;28.33;;;;;;;16.87;92.13;100763.00;1044554;28;20041;-81
2021/07/13 02:10:51;;;;;;;31.55;28.70;;;;;;;16.92;92.60;100770.78;1045952;28;20128;-81
2021/07/13 02:11:25;;;;;;;31.80;28.75;;;;;;;16.91;92.48;100769.06;1048632;28;20050;-81
2021/07/13 02:11:57;;;;;;;32.97;29.75;;;;;;;16.91;92.36;100766.47;1048482;28;20048;-81
2021/07/13 02:12:29;;;;;;;32.00;28.45;;;;;;;16.88;92.60;100769.97;1048691;28;20544;-82
2021/07/13 02:13:00;;;;;;;34.20;31.05;;;;;;;16.86;92.62;100769.13;1048382;28;20052;-81
2021/07/13 02:13:33;;;;;;;31.75;28.50;;;;;;;16.89;92.84;100768.19;1044604;28;20056;-82
2021/07/13 02:14:05;;;;;;;35.03;31.55;;;;;;;16.86;92.56;100763.03;1044520;28;20053;-81
2021/07/13 02:14:36;;;;;;;30.75;27.75;;;;;;;16.88;92.60;100767.34;1045133;28;20048;-82
2021/07/13 02:15:09;;;;;;;29.08;26.48;;;;;;;16.85;92.15;100769.16;1048654;28;20052;-81
2021/07/13 02:15:41;;;;;;;31.30;28.00;;;;;;;16.85;92.37;100767.41;1044403;28;20053;-81
2021/07/13 02:16:13;;;;;;;33.60;30.58;;;;;;;16.85;92.45;100764.78;1044585;28;20049;-81
2021/07/13 02:16:44;;;;;;;31.95;28.85;;;;;;;16.82;92.15;100775.25;1041014;28;20050;-80
2021/07/13 02:17:16;;;;;;;29.88;26.85;;;;;;;16.81;91.83;100765.69;1044409;28;20060;-82
2021/07/13 02:17:51;;;;;;;30.05;27.35;;;;;;;16.82;92.25;100766.56;1040540;28;20049;-81
2021/07/13 02:18:25;;;;;;;27.70;25.17;;;;;;;16.80;93.06;100768.34;1041204;28;20056;-80
2021/07/13 02:18:57;;;;;;;28.77;25.95;;;;;;;16.78;92.92;100770.09;1044583;28;20048;-81
2021/07/13 02:19:28;;;;;;;30.42;27.35;;;;;;;16.80;92.92;100773.56;1051996;28;20381;-81
2021/07/13 02:20:01;;;;;;;30.17;27.35;;;;;;;16.80;92.65;100770.94;1052691;28;20112;-81
2021/07/13 02:20:33;;;;;;;27.13;24.63;;;;;;;16.80;92.31;100760.50;1044402;28;20053;-81
2021/07/13 02:21:05;;;;;;;28.35;25.52;;;;;;;16.81;92.52;100770.06;1044468;28;20048;-81
2021/07/13 02:21:37;;;;;;;24.45;22.30;;;;;;;16.79;92.45;100763.97;1040337;28;20125;-81
2021/07/13 02:22:10;;;;;;;24.90;22.33;;;;;;;16.79;92.45;100766.56;1041466;28;20191;-81
2021/07/13 02:22:42;;;;;;;20.90;19.08;;;;;;;16.78;92.67;100770.09;1041157;28;20053;-81
2021/07/13 02:23:14;;;;;;;27.25;24.45;;;;;;;16.75;92.61;100759.69;1044126;28;20421;-81
2021/07/13 02:23:46;;;;;;;28.80;26.13;;;;;;;16.73;93.14;100764.91;1041102;28;20045;-82
2021/07/13 02:24:18;;;;;;;26.70;24.13;;;;;;;16.75;93.15;100764.91;1041044;28;20056;-81
2021/07/13 02:24:49;;;;;;;29.75;26.73;;;;;;;16.76;92.95;100762.25;1044397;28;20055;-81
2021/07/13 02:25:21;;;;;;;29.13;26.45;;;;;;;16.77;93.29;100765.75;1044995;28;20052;-81
2021/07/13 02:25:55;;;;;;;32.28;29.17;;;;;;;16.73;93.69;100764.03;1044502;28;20044;-81
2021/07/13 02:26:34;;;;;;;30.42;27.45;;;;;;;16.73;93.63;100767.50;1041178;28;20068;-81
2021/07/13 02:27:17;;;;;;;26.73;24.30;;;;;;;16.77;93.40;100758.78;1040344;28;20045;-81
2021/07/13 02:28:03;;;;;;;29.73;26.70;;;;;;;16.80;93.00;100765.72;1039509;28;20060;-81
2021/07/13 02:28:38;;;;;;;32.65;29.48;;;;;;;16.82;93.03;100767.41;1044505;28;20052;-82
2021/07/13 02:29:36;;;;;;;27.17;24.58;;;;;;;16.81;93.20;100765.69;1044373;28;20053;-81
2021/07/13 02:30:09;;;;;;;31.08;28.05;;;;;;;16.82;93.51;100763.94;1044487;28;20048;-81
2021/07/13 02:30:43;;;;;;;33.85;30.25;;;;;;;16.85;93.12;100764.78;1044352;28;20048;-82
2021/07/13 02:31:34;;;;;;;35.80;32.25;;;;;;;16.90;93.03;100765.59;1044355;28;20124;-80
2021/07/13 02:32:22;;;;;;;31.73;28.52;;;;;;;16.90;93.18;100767.31;1040375;28;20096;-81
2021/07/13 02:33:02;;;;;;;35.38;32.00;;;;;;;16.91;93.94;100756.88;1042840;28;20053;-81
2021/07/13 02:33:42;;;;;;;34.67;31.38;;;;;;;16.90;94.22;100762.09;1048715;28;20504;-81
2021/07/13 02:34:17;;;;;;;35.42;32.03;;;;;;;16.94;93.63;100764.66;1048602;28;20058;-81
2021/07/13 02:34:50;;;;;;;37.10;33.15;;;;;;;16.98;93.33;100762.88;1045925;28;20051;-81
2021/07/13 02:35:30;;;;;;;32.80;29.50;;;;;;;16.98;93.93;100762.88;1040155;28;20049;-81
2021/07/13 02:36:08;;;;;;;32.28;29.23;;;;;;;16.93;94.21;100756.84;1042644;28;20049;-82
2021/07/13 02:36:45;;;;;;;31.27;28.17;;;;;;;16.90;93.86;100762.97;1044340;28;20049;-80
2021/07/13 02:37:17;;;;;;;35.08;31.73;;;;;;;16.91;93.82;100756.00;1043573;28;20052;-81
2021/07/13 02:37:49;;;;;;;31.92;28.85;;;;;;;16.90;93.12;100768.22;1045026;28;20045;-81
2021/07/13 02:38:22;;;;;;;32.88;29.42;;;;;;;16.92;93.16;100766.44;1044423;28;20512;-82
2021/07/13 02:38:58;;;;;;;34.50;30.95;;;;;;;16.96;93.25;100756.81;1044348;28;20503;-81
2021/07/13 02:39:31;;;;;;;37.67;34.05;;;;;;;16.99;93.21;100759.38;1045515;28;20053;-80
2021/07/13 02:40:07;;;;;;;34.25;30.95;;;;;;;16.98;92.78;100765.47;1044367;28;20052;-82